Faaborg, Denmark
Current Conditions -  °F | °C
As of 2:50 PM on Wednesday 26 Nov 2014 (Local Time) from EKSB Reporting Station
Broken Clouds Broken Clouds  
Wind Chill: 35°   Ceiling: 1400
Heat Index: 43°   Visibility: 6mi
Dew Point: 39°   Wind: 18mph
Humidity: 87%   Direction: 110°ESE
Pressure: 30.15"   Gusts: NA
Location:  55.1°N, 10.24°E
Report Text: EKSB 261350Z 11016KT 9999 BKN014 06/04 Q1021
Loading
Personal Weather Stations






























Interactive Weather Map New forecast layout! Learn more

10-Day Weather Forecast

Advertisements
Track Severe Weather on mobile